createdAt,value
2023-02-16T00:00:26.951Z,53.85
2023-02-16T00:02:57.164Z,48.97
2023-02-16T00:05:32.790Z,59.63
2023-02-16T00:08:01.118Z,49.92
2023-02-16T00:10:32.913Z,46.63
2023-02-16T00:13:19.106Z,56.03
2023-02-16T00:15:46.502Z,47.50
2023-02-16T00:18:21.673Z,47.00
2023-02-16T00:20:49.316Z,46.00
2023-02-16T00:23:16.860Z,49.97
2023-02-16T00:25:43.911Z,50.85
2023-02-16T00:28:16.058Z,47.33
2023-02-16T00:30:45.193Z,45.42
2023-02-16T00:33:19.632Z,41.28
2023-02-16T00:35:47.593Z,44.83
2023-02-16T00:38:16.494Z,42.78
2023-02-16T00:40:44.001Z,45.58
2023-02-16T00:43:26.160Z,42.83
2023-02-16T00:45:54.029Z,43.22
2023-02-16T00:48:21.711Z,50.95
2023-02-16T00:50:49.014Z,49.63
2023-02-16T00:53:17.731Z,51.95
2023-02-16T00:55:45.112Z,53.17
2023-02-16T00:58:20.762Z,52.92
2023-02-16T01:00:52.380Z,54.80
2023-02-16T01:03:24.083Z,44.85
2023-02-16T01:06:11.435Z,49.65
2023-02-16T01:08:56.908Z,51.03
2023-02-16T01:11:25.694Z,50.53
2023-02-16T01:13:55.133Z,46.60
2023-02-16T01:16:25.845Z,45.10
2023-02-16T01:18:54.014Z,45.67
2023-02-16T01:21:23.874Z,51.60
2023-02-16T01:23:50.870Z,45.50
2023-02-16T01:26:20.379Z,44.80
2023-02-16T01:28:48.240Z,48.60
2023-02-16T01:31:16.796Z,49.20
2023-02-16T01:33:44.579Z,47.17
2023-02-16T01:36:39.720Z,50.83
2023-02-16T01:39:11.523Z,58.20
2023-02-16T01:41:53.436Z,54.42
2023-02-16T01:44:29.656Z,55.92
2023-02-16T01:47:24.301Z,56.28
2023-02-16T01:52:30.737Z,52.55
2023-02-16T01:55:07.966Z,47.85
2023-02-16T01:57:35.084Z,56.28
2023-02-16T02:00:08.826Z,53.55
2023-02-16T02:02:50.845Z,45.05
2023-02-16T02:05:35.589Z,48.72
2023-02-16T02:10:54.746Z,47.53
2023-02-16T02:13:34.363Z,50.60
2023-02-16T02:16:04.011Z,53.38
2023-02-16T02:18:33.270Z,59.75
2023-02-16T02:21:46.997Z,50.33
2023-02-16T02:24:32.679Z,48.08
2023-02-16T02:27:24.176Z,46.17
2023-02-16T02:30:18.771Z,45.38
2023-02-16T02:33:10.465Z,51.07
2023-02-16T02:35:45.079Z,53.53
2023-02-16T02:38:50.174Z,52.08
2023-02-16T02:41:48.337Z,61.45
2023-02-16T02:44:20.695Z,57.75
2023-02-16T02:46:49.429Z,48.42
2023-02-16T02:49:17.681Z,49.33
2023-02-16T02:51:44.741Z,51.85
2023-02-16T02:54:39.330Z,50.65
2023-02-16T02:57:34.997Z,51.55
2023-02-16T03:03:32.791Z,44.15
2023-02-16T03:06:08.112Z,50.05
2023-02-16T03:08:38.730Z,47.78
2023-02-16T03:11:34.169Z,49.53
2023-02-16T03:14:11.708Z,50.90
2023-02-16T03:16:44.599Z,47.35
2023-02-16T03:19:34.647Z,41.13
2023-02-16T03:22:21.470Z,39.33
2023-02-16T03:25:07.276Z,46.53
2023-02-16T03:27:58.121Z,45.95
2023-02-16T03:30:27.055Z,51.80
2023-02-16T03:32:54.762Z,48.20
2023-02-16T03:35:22.018Z,41.42
2023-02-16T03:37:49.273Z,46.05
2023-02-16T03:40:30.017Z,51.13
2023-02-16T03:43:02.987Z,44.90
2023-02-16T03:45:32.210Z,45.17
2023-02-16T03:47:59.234Z,41.20
2023-02-16T03:50:27.169Z,45.20
2023-02-16T03:53:06.596Z,47.00
2023-02-16T03:55:39.446Z,41.25
2023-02-16T03:58:09.324Z,44.95
2023-02-16T04:00:36.643Z,39.40
2023-02-16T04:03:04.609Z,50.55
2023-02-16T04:05:33.282Z,51.03
2023-02-16T04:08:00.903Z,43.72
2023-02-16T04:10:28.458Z,49.47
2023-02-16T04:12:55.574Z,55.65
2023-02-16T04:15:26.167Z,52.78
2023-02-16T04:17:54.108Z,52.72
2023-02-16T04:20:24.353Z,52.92
2023-02-16T04:22:51.451Z,45.38
2023-02-16T04:25:19.644Z,50.45
2023-02-16T04:27:48.881Z,57.28
2023-02-16T04:30:19.174Z,48.33
2023-02-16T04:32:46.517Z,57.85
2023-02-16T04:35:13.852Z,49.65
2023-02-16T04:37:41.012Z,51.50
2023-02-16T04:40:15.085Z,48.70
2023-02-16T04:42:43.572Z,56.05
2023-02-16T04:45:12.387Z,50.72
2023-02-16T04:47:39.962Z,62.47
2023-02-16T04:50:07.447Z,53.60
2023-02-16T04:52:34.795Z,51.88
2023-02-16T04:55:01.831Z,51.92
2023-02-16T04:57:28.894Z,43.35
2023-02-16T04:59:56.262Z,46.55
2023-02-16T05:02:23.238Z,51.35
2023-02-16T05:04:50.288Z,53.28
2023-02-16T05:07:17.665Z,55.42
2023-02-16T05:09:44.661Z,51.20
2023-02-16T05:12:29.897Z,48.70
2023-02-16T05:14:57.296Z,42.70
2023-02-16T05:17:25.812Z,43.95
2023-02-16T05:19:58.587Z,49.80
2023-02-16T05:22:28.625Z,60.15
2023-02-16T05:24:55.649Z,53.22
2023-02-16T05:27:28.156Z,53.15
2023-02-16T05:29:56.204Z,49.55
2023-02-16T05:32:23.616Z,50.28
2023-02-16T05:34:50.780Z,48.75
2023-02-16T05:37:18.679Z,49.67
2023-02-16T05:39:46.064Z,49.60
2023-02-16T05:42:13.350Z,56.37
2023-02-16T05:44:40.692Z,59.40
2023-02-16T05:47:07.913Z,48.40
2023-02-16T05:49:35.038Z,64.53
2023-02-16T05:52:02.474Z,55.12
2023-02-16T05:54:29.623Z,57.08
2023-02-16T05:56:56.734Z,57.47
2023-02-16T05:59:24.240Z,54.78
2023-02-16T06:01:52.487Z,50.72
2023-02-16T06:04:21.255Z,56.65
2023-02-16T06:06:48.916Z,45.85
2023-02-16T06:09:16.216Z,51.00
2023-02-16T06:11:43.657Z,54.72
2023-02-16T06:14:18.943Z,58.45
2023-02-16T06:16:49.361Z,43.55
2023-02-16T06:19:18.717Z,51.58
2023-02-16T06:21:46.404Z,50.25
2023-02-16T06:24:14.909Z,53.63
2023-02-16T06:26:42.163Z,54.97
2023-02-16T06:29:09.714Z,52.92
2023-02-16T06:31:37.549Z,49.55
2023-02-16T06:34:07.539Z,57.50
2023-02-16T06:36:34.919Z,51.22
2023-02-16T06:39:02.381Z,50.53
2023-02-16T06:41:33.650Z,58.35
2023-02-16T06:44:02.410Z,58.20
2023-02-16T06:46:29.966Z,53.97
2023-02-16T06:48:57.129Z,51.85
2023-02-16T06:51:24.481Z,56.72
2023-02-16T06:53:51.945Z,52.17
2023-02-16T06:56:19.105Z,63.63
2023-02-16T06:58:46.238Z,52.00
2023-02-16T07:01:13.772Z,63.35
2023-02-16T07:03:41.017Z,60.47
2023-02-16T07:06:08.154Z,60.88
2023-02-16T07:08:35.906Z,71.87
2023-02-16T07:11:03.792Z,69.55
2023-02-16T07:13:31.341Z,70.95
2023-02-16T07:15:58.768Z,63.25
2023-02-16T07:18:26.161Z,63.70
2023-02-16T07:20:53.754Z,70.55
2023-02-16T07:23:21.500Z,68.35
2023-02-16T07:25:48.870Z,71.87
2023-02-16T07:28:16.398Z,72.43
2023-02-16T07:30:43.906Z,68.12
2023-02-16T07:33:11.373Z,59.33
2023-02-16T07:35:38.665Z,73.20
2023-02-16T07:38:06.128Z,67.95
2023-02-16T07:40:33.846Z,67.25
2023-02-16T07:43:03.076Z,66.78
2023-02-16T07:45:33.045Z,64.53
2023-02-16T07:48:01.121Z,59.58
2023-02-16T07:50:28.330Z,58.10
2023-02-16T07:52:55.731Z,60.30
2023-02-16T07:55:22.815Z,60.30
2023-02-16T07:57:54.624Z,60.28
2023-02-16T08:00:22.500Z,59.92
2023-02-16T08:02:50.136Z,63.10
2023-02-16T08:05:17.749Z,67.57
2023-02-16T08:07:46.629Z,57.17
2023-02-16T08:10:15.719Z,62.13
2023-02-16T08:12:43.208Z,64.35
2023-02-16T08:15:11.789Z,63.97
2023-02-16T08:17:39.177Z,62.97
2023-02-16T08:20:07.793Z,79.95
2023-02-16T08:22:35.211Z,64.87
2023-02-16T08:25:02.659Z,88.45
2023-02-16T08:27:29.884Z,76.50
2023-02-16T08:29:56.970Z,80.68
2023-02-16T08:32:24.457Z,102.43
2023-02-16T08:34:52.307Z,90.82
2023-02-16T08:37:19.381Z,86.45
2023-02-16T08:39:46.822Z,91.80
2023-02-16T08:42:13.943Z,92.68
2023-02-16T08:44:42.398Z,82.72
2023-02-16T08:47:11.699Z,80.30
2023-02-16T08:49:39.499Z,80.35
2023-02-16T08:52:06.778Z,88.87
2023-02-16T08:54:34.611Z,88.80
2023-02-16T08:57:05.963Z,87.07
2023-02-16T08:59:35.929Z,77.68
2023-02-16T09:02:03.057Z,83.60
2023-02-16T09:04:30.210Z,102.78
2023-02-16T09:06:58.458Z,86.35
2023-02-16T09:09:26.627Z,95.25
2023-02-16T09:11:53.830Z,96.12
2023-02-16T09:14:23.143Z,86.25
2023-02-16T09:16:50.541Z,78.87
2023-02-16T09:19:21.543Z,110.88
2023-02-16T09:21:50.941Z,107.00
2023-02-16T09:24:18.275Z,96.90
2023-02-16T09:26:45.284Z,78.35
2023-02-16T09:29:13.955Z,79.68
2023-02-16T09:31:42.563Z,89.22
2023-02-16T09:34:21.785Z,79.50
2023-02-16T09:36:50.345Z,73.80
2023-02-16T09:39:18.708Z,78.05
2023-02-16T09:42:09.803Z,74.70
2023-02-16T09:45:03.653Z,75.85
2023-02-16T09:47:37.186Z,76.82
2023-02-16T09:50:27.766Z,82.43
2023-02-16T09:53:00.900Z,69.35
2023-02-16T09:56:03.492Z,66.95
2023-02-16T09:58:42.545Z,60.15
2023-02-16T10:01:31.704Z,68.03
2023-02-16T10:04:24.316Z,59.92
2023-02-16T10:07:20.451Z,54.08
2023-02-16T10:09:51.427Z,53.58
2023-02-16T10:12:25.175Z,53.53
2023-02-16T10:14:58.116Z,51.67
2023-02-16T10:17:31.510Z,57.97
2023-02-16T10:20:13.228Z,56.72
2023-02-16T10:22:44.456Z,52.62
2023-02-16T10:25:18.940Z,55.30
2023-02-16T10:30:22.114Z,55.03
2023-02-16T10:32:56.859Z,54.17
2023-02-16T10:35:57.606Z,51.33
2023-02-16T10:38:32.007Z,48.35
2023-02-16T10:41:04.462Z,50.80
2023-02-16T10:43:53.438Z,61.42
2023-02-16T10:46:25.915Z,66.47
2023-02-16T10:48:54.994Z,60.72
2023-02-16T10:51:28.207Z,55.58
2023-02-16T10:54:06.702Z,52.08
2023-02-16T10:56:39.965Z,53.67
2023-02-16T10:59:38.373Z,55.80
2023-02-16T11:02:19.830Z,62.05
2023-02-16T11:04:50.071Z,57.75
2023-02-16T11:07:20.900Z,60.67
2023-02-16T11:09:57.298Z,61.37
2023-02-16T11:12:38.392Z,64.05
2023-02-16T11:15:21.836Z,57.45
2023-02-16T11:17:50.928Z,58.33
2023-02-16T11:20:28.770Z,58.17
2023-02-16T11:23:23.072Z,55.55
2023-02-16T11:25:58.203Z,58.97
2023-02-16T11:28:44.755Z,65.82
2023-02-16T11:31:36.391Z,64.32
2023-02-16T11:34:07.656Z,57.62
2023-02-16T11:36:39.472Z,57.33
2023-02-16T11:39:21.955Z,58.95
2023-02-16T11:42:02.848Z,53.67
2023-02-16T11:44:30.200Z,45.58
2023-02-16T11:46:59.400Z,61.13
2023-02-16T11:49:35.730Z,56.83
2023-02-16T11:52:24.265Z,55.92
2023-02-16T11:54:54.034Z,64.82
2023-02-16T11:57:28.487Z,53.53
2023-02-16T12:02:45.138Z,55.47
2023-02-16T12:06:03.418Z,62.22
2023-02-16T12:08:49.347Z,52.65
2023-02-16T12:11:30.437Z,52.33
2023-02-16T12:14:12.492Z,53.30
2023-02-16T12:17:05.210Z,50.88
2023-02-16T12:19:45.519Z,54.65
2023-02-16T12:22:24.469Z,56.13
2023-02-16T12:25:07.867Z,57.33
2023-02-16T12:27:49.716Z,55.07
2023-02-16T12:30:45.359Z,53.35
2023-02-16T12:33:26.138Z,53.25
2023-02-16T12:36:08.471Z,46.28
2023-02-16T12:38:47.238Z,50.05
2023-02-16T12:41:17.253Z,54.20
2023-02-16T12:43:52.921Z,55.72
2023-02-16T12:46:29.687Z,52.03
2023-02-16T12:48:59.494Z,50.63
2023-02-16T12:51:41.399Z,49.92
2023-02-16T12:54:27.363Z,52.97
2023-02-16T12:57:04.611Z,51.88
2023-02-16T13:00:09.103Z,42.62
2023-02-16T13:02:40.583Z,47.45
2023-02-16T13:05:18.197Z,53.70
2023-02-16T13:07:49.121Z,46.03
2023-02-16T13:10:30.743Z,49.95
2023-02-16T13:13:34.677Z,51.85
2023-02-16T13:16:12.872Z,48.13
2023-02-16T13:18:50.586Z,46.80
2023-02-16T13:21:51.560Z,48.97
2023-02-16T13:24:51.181Z,52.42
2023-02-16T13:27:48.830Z,54.30
2023-02-16T13:30:55.800Z,53.25
2023-02-16T13:33:51.548Z,47.08
2023-02-16T13:36:27.425Z,53.28
2023-02-16T13:39:16.985Z,45.25
2023-02-16T13:42:02.968Z,49.75
2023-02-16T13:44:46.111Z,45.72
2023-02-16T13:47:18.222Z,46.53
2023-02-16T13:49:46.403Z,45.08
2023-02-16T13:52:41.850Z,47.72
2023-02-16T13:55:25.869Z,49.90
2023-02-16T13:58:14.348Z,45.13
2023-02-16T14:00:50.999Z,51.00
2023-02-16T14:03:21.361Z,45.45
2023-02-16T14:05:56.414Z,42.05
2023-02-16T14:08:29.106Z,49.13
2023-02-16T14:10:58.000Z,56.88
2023-02-16T14:13:45.581Z,62.28
2023-02-16T14:16:18.617Z,49.47
2023-02-16T14:18:56.815Z,55.47
2023-02-16T14:21:40.497Z,70.93
2023-02-16T14:24:13.641Z,52.35
2023-02-16T14:26:56.267Z,46.17
2023-02-16T14:29:31.520Z,49.67
2023-02-16T14:32:21.418Z,42.90
2023-02-16T14:34:57.480Z,58.03
2023-02-16T14:37:59.033Z,49.45
2023-02-16T14:40:49.826Z,43.63
2023-02-16T14:43:38.691Z,46.80
2023-02-16T14:46:18.382Z,47.70
2023-02-16T14:48:58.325Z,45.83
2023-02-16T14:51:44.331Z,49.65
2023-02-16T14:54:37.417Z,49.10
2023-02-16T14:57:06.973Z,49.65
2023-02-16T14:59:57.146Z,49.88
2023-02-16T15:02:25.818Z,50.28
2023-02-16T15:04:52.977Z,47.62
2023-02-16T15:07:22.162Z,51.25
2023-02-16T15:09:57.407Z,48.97
2023-02-16T15:12:39.388Z,47.00
2023-02-16T15:15:13.434Z,55.12
2023-02-16T15:17:45.433Z,47.62
2023-02-16T15:20:27.717Z,54.47
2023-02-16T15:22:57.537Z,55.83
2023-02-16T15:25:32.638Z,56.37
2023-02-16T15:28:05.911Z,53.83
2023-02-16T15:30:35.754Z,55.55
2023-02-16T15:33:13.157Z,59.20
2023-02-16T15:35:43.394Z,73.57
2023-02-16T15:38:13.176Z,87.68
2023-02-16T15:40:40.684Z,93.85
2023-02-16T15:43:19.933Z,87.40
2023-02-16T15:45:55.659Z,81.90
2023-02-16T15:48:31.957Z,69.15
2023-02-16T15:51:07.081Z,59.85
2023-02-16T15:53:39.180Z,58.00
2023-02-16T15:56:28.206Z,66.37
2023-02-16T15:59:20.451Z,63.22
2023-02-16T16:01:49.066Z,51.88
2023-02-16T16:04:23.301Z,60.95
2023-02-16T16:06:51.901Z,50.47
2023-02-16T16:09:24.043Z,52.85
2023-02-16T16:11:53.100Z,51.78
2023-02-16T16:14:21.661Z,55.12
2023-02-16T16:16:50.008Z,47.45
2023-02-16T16:19:38.122Z,47.65
2023-02-16T16:22:29.738Z,50.38
2023-02-16T16:24:57.027Z,54.05
2023-02-16T16:27:36.685Z,53.20
2023-02-16T16:30:28.088Z,51.78
2023-02-16T16:33:11.909Z,55.00
2023-02-16T16:35:45.621Z,52.67
2023-02-16T16:38:29.067Z,53.22
2023-02-16T16:40:59.737Z,58.67
2023-02-16T16:43:33.278Z,53.10
2023-02-16T16:46:24.835Z,51.47
2023-02-16T16:49:03.460Z,57.28
2023-02-16T16:51:33.542Z,67.53
2023-02-16T16:54:04.179Z,77.97
2023-02-16T16:56:37.092Z,91.15
2023-02-16T16:59:04.762Z,86.03
2023-02-16T17:01:32.396Z,84.00
2023-02-16T17:04:00.220Z,83.37
2023-02-16T17:06:28.006Z,79.65
2023-02-16T17:08:55.301Z,69.57
2023-02-16T17:11:32.371Z,71.78
2023-02-16T17:14:09.089Z,86.03
2023-02-16T17:16:44.916Z,76.05
2023-02-16T17:19:13.912Z,79.15
2023-02-16T17:21:41.534Z,82.10
2023-02-16T17:24:10.221Z,71.07
2023-02-16T17:26:38.059Z,71.30
2023-02-16T17:29:06.814Z,76.12
2023-02-16T17:31:34.622Z,74.95
2023-02-16T17:34:02.204Z,68.47
2023-02-16T17:36:29.310Z,69.40
2023-02-16T17:38:56.440Z,69.90
2023-02-16T17:41:26.626Z,79.28
2023-02-16T17:43:54.117Z,76.90
2023-02-16T17:46:22.728Z,95.97
2023-02-16T17:48:53.861Z,88.55
2023-02-16T17:51:24.141Z,90.25
2023-02-16T17:53:51.783Z,84.37
2023-02-16T17:56:22.352Z,92.80
2023-02-16T17:58:49.907Z,80.95
2023-02-16T18:01:19.562Z,79.15
2023-02-16T18:03:47.069Z,77.30
2023-02-16T18:06:16.761Z,80.87
2023-02-16T18:08:44.744Z,82.82
2023-02-16T18:11:12.639Z,79.32
2023-02-16T18:13:40.154Z,76.65
2023-02-16T18:16:08.437Z,90.22
2023-02-16T18:18:39.753Z,87.88
2023-02-16T18:21:07.371Z,75.70
2023-02-16T18:23:34.573Z,75.05
2023-02-16T18:26:03.228Z,77.03
2023-02-16T18:28:32.794Z,84.70
2023-02-16T18:31:00.792Z,86.53
2023-02-16T18:33:28.487Z,71.55
2023-02-16T18:35:57.711Z,77.00
2023-02-16T18:38:25.118Z,77.43
2023-02-16T18:40:54.124Z,80.65
2023-02-16T18:43:22.449Z,87.03
2023-02-16T18:45:50.064Z,89.03
2023-02-16T18:48:17.593Z,77.35
2023-02-16T18:50:44.881Z,82.00
2023-02-16T18:53:12.047Z,79.78
2023-02-16T18:55:39.525Z,86.40
2023-02-16T18:58:08.550Z,73.53
2023-02-16T19:00:36.959Z,71.53
2023-02-16T19:03:04.668Z,74.53
2023-02-16T19:05:33.092Z,77.80
2023-02-16T19:08:00.208Z,73.68
2023-02-16T19:10:27.610Z,66.65
2023-02-16T19:12:54.712Z,74.60
2023-02-16T19:15:21.865Z,75.57
2023-02-16T19:17:49.317Z,66.60
2023-02-16T19:20:21.319Z,53.83
2023-02-16T19:22:49.332Z,56.63
2023-02-16T19:25:16.681Z,70.75
2023-02-16T19:27:46.362Z,60.60
2023-02-16T19:30:13.888Z,59.78
2023-02-16T19:32:41.544Z,62.47
2023-02-16T19:35:10.016Z,60.75
2023-02-16T19:37:37.447Z,61.40
2023-02-16T19:40:06.821Z,74.12
2023-02-16T19:42:34.163Z,76.65
2023-02-16T19:45:02.804Z,76.50
2023-02-16T19:47:29.915Z,70.37
2023-02-16T19:49:57.210Z,69.90
2023-02-16T19:52:24.575Z,64.12
2023-02-16T19:54:51.790Z,56.53
2023-02-16T19:57:19.178Z,59.83
2023-02-16T19:59:46.629Z,67.70
2023-02-16T20:02:15.477Z,76.37
2023-02-16T20:04:44.654Z,72.75
2023-02-16T20:07:11.751Z,69.12
2023-02-16T20:09:39.182Z,65.12
2023-02-16T20:12:07.074Z,71.85
2023-02-16T20:14:34.196Z,68.05
2023-02-16T20:17:01.300Z,68.32
2023-02-16T20:19:28.707Z,63.08
2023-02-16T20:21:55.841Z,79.22
2023-02-16T20:24:23.010Z,62.47
2023-02-16T20:26:51.993Z,63.22
2023-02-16T20:29:20.781Z,68.97
2023-02-16T20:31:53.684Z,65.03
2023-02-16T20:34:21.905Z,58.00
2023-02-16T20:36:49.034Z,57.55
2023-02-16T20:39:16.439Z,58.10
2023-02-16T20:41:44.353Z,71.53
2023-02-16T20:44:12.235Z,61.55
2023-02-16T20:46:40.103Z,60.25
2023-02-16T20:49:07.899Z,67.62
2023-02-16T20:51:36.033Z,64.20
2023-02-16T20:54:04.129Z,66.80
2023-02-16T20:56:31.557Z,61.53
2023-02-16T20:58:59.013Z,66.30
2023-02-16T21:01:34.359Z,71.35
2023-02-16T21:04:01.704Z,62.38
2023-02-16T21:06:29.511Z,68.20
2023-02-16T21:08:57.322Z,65.60
2023-02-16T21:11:25.670Z,69.32
2023-02-16T21:13:54.504Z,63.20
2023-02-16T21:16:22.384Z,63.53
2023-02-16T21:18:50.059Z,54.50
2023-02-16T21:21:17.633Z,53.85
2023-02-16T21:23:46.824Z,72.15
2023-02-16T21:26:14.988Z,63.55
2023-02-16T21:28:42.134Z,68.00
2023-02-16T21:31:12.615Z,79.97
2023-02-16T21:33:40.576Z,66.68
2023-02-16T21:36:10.807Z,71.93
2023-02-16T21:38:39.104Z,64.47
2023-02-16T21:41:24.488Z,61.78
2023-02-16T21:44:02.233Z,58.87
2023-02-16T21:46:35.059Z,57.58
2023-02-16T21:49:02.531Z,66.37
2023-02-16T21:51:33.714Z,65.93
2023-02-16T21:54:01.408Z,66.35
2023-02-16T21:56:40.371Z,58.55
2023-02-16T21:59:10.729Z,66.50
2023-02-16T22:01:46.557Z,70.85
2023-02-16T22:04:21.720Z,67.37
2023-02-16T22:06:51.001Z,69.57
2023-02-16T22:09:21.270Z,64.82
2023-02-16T22:11:49.164Z,61.17
2023-02-16T22:14:16.833Z,64.90
2023-02-16T22:16:45.857Z,73.43
2023-02-16T22:19:15.540Z,75.45
2023-02-16T22:21:46.060Z,68.43
2023-02-16T22:24:14.855Z,70.45
2023-02-16T22:26:42.061Z,66.05
2023-02-16T22:29:09.623Z,66.00
2023-02-16T22:31:37.309Z,66.65
2023-02-16T22:34:06.739Z,68.53
2023-02-16T22:36:35.690Z,64.30
2023-02-16T22:39:04.218Z,64.80
2023-02-16T22:41:31.388Z,70.57
2023-02-16T22:44:01.624Z,68.70
2023-02-16T22:46:29.639Z,75.43
2023-02-16T22:48:59.998Z,66.25
2023-02-16T22:51:29.313Z,73.45
2023-02-16T22:54:01.094Z,65.90
2023-02-16T22:56:29.768Z,70.15
2023-02-16T22:58:58.501Z,78.65
2023-02-16T23:01:27.797Z,71.30
2023-02-16T23:03:57.795Z,61.92
2023-02-16T23:06:28.704Z,63.47
2023-02-16T23:08:59.107Z,65.68
2023-02-16T23:11:27.771Z,73.10
2023-02-16T23:13:55.321Z,57.85
2023-02-16T23:16:24.732Z,64.45
2023-02-16T23:18:52.561Z,68.32
2023-02-16T23:21:25.599Z,67.85
2023-02-16T23:23:53.924Z,65.73
2023-02-16T23:26:23.278Z,62.30
2023-02-16T23:28:53.365Z,63.87
2023-02-16T23:31:21.084Z,63.97
2023-02-16T23:33:48.618Z,64.50
2023-02-16T23:36:15.766Z,58.13
2023-02-16T23:38:43.217Z,65.93
2023-02-16T23:41:14.924Z,58.22
2023-02-16T23:43:43.215Z,61.33
2023-02-16T23:46:11.439Z,70.37
2023-02-16T23:48:38.743Z,65.25
2023-02-16T23:51:06.302Z,58.35
2023-02-16T23:53:33.960Z,69.15
2023-02-16T23:56:02.145Z,58.63
2023-02-16T23:58:32.218Z,64.15
